Jim Falls, Wisconsin
Current Conditions -  °F | °C
As of 5:56 AM on Sunday 21 Dec 2014 (Local Time) from KEAU Reporting Station
Haze Haze  
Wind Chill: 22°   Ceiling: 900
Heat Index: 31°   Visibility: 6mi
Dew Point: 27°   Wind: 12mph
Humidity: 85%   Direction: 140°SE
Pressure: 30"   Gusts: NA
Location:  45.05°N, 91.27°W
Report Text: KEAU 211156Z 14010KT 6SM BR OVC009 M01/M03 A3000 RMK AO2 SLP171 T10061028 11006 21011 56016
Loading
Personal Weather Stations






























Interactive Weather Map New forecast layout! Learn more

10-Day Weather Forecast

Advertisements
Track Severe Weather on mobile